createdAt,value
2024-01-07T00:02:09.469Z,-4.40
2024-01-07T00:04:37.397Z,-4.40
2024-01-07T00:07:06.779Z,-4.40
2024-01-07T00:09:34.958Z,-4.40
2024-01-07T00:12:02.839Z,-4.44
2024-01-07T00:14:30.723Z,-4.50
2024-01-07T00:16:59.049Z,-4.50
2024-01-07T00:19:29.433Z,-4.50
2024-01-07T00:21:57.415Z,-4.50
2024-01-07T00:24:27.177Z,-4.50
2024-01-07T00:26:55.171Z,-4.50
2024-01-07T00:29:23.267Z,-4.50
2024-01-07T00:31:51.404Z,-4.60
2024-01-07T00:34:19.620Z,-4.60
2024-01-07T00:36:47.878Z,-4.60
2024-01-07T00:39:15.880Z,-4.60
2024-01-07T00:41:44.188Z,-4.60
2024-01-07T00:44:12.379Z,-4.60
2024-01-07T00:46:40.354Z,-4.60
2024-01-07T00:49:08.495Z,-4.60
2024-01-07T00:51:36.685Z,-4.70
2024-01-07T00:54:04.647Z,-4.70
2024-01-07T00:56:32.604Z,-4.78
2024-01-07T00:59:00.451Z,-4.78
2024-01-07T01:01:30.634Z,-4.78
2024-01-07T01:03:59.683Z,-4.76
2024-01-07T01:06:27.944Z,-4.80
2024-01-07T01:08:56.179Z,-4.80
2024-01-07T01:11:24.230Z,-4.80
2024-01-07T01:13:52.365Z,-4.80
2024-01-07T01:16:23.557Z,-4.80
2024-01-07T01:18:53.363Z,-4.80
2024-01-07T01:21:21.385Z,-4.80
2024-01-07T01:23:49.998Z,-4.80
2024-01-07T01:26:17.969Z,-4.80
2024-01-07T01:28:45.826Z,-4.80
2024-01-07T01:31:15.972Z,-4.80
2024-01-07T01:33:44.385Z,-4.80
2024-01-07T01:36:12.800Z,-4.80
2024-01-07T01:38:40.770Z,-4.80
2024-01-07T01:41:08.711Z,-4.80
2024-01-07T01:43:36.654Z,-4.80
2024-01-07T01:46:04.889Z,-4.80
2024-01-07T01:48:33.037Z,-4.80
2024-01-07T01:51:00.974Z,-4.80
2024-01-07T01:53:29.730Z,-4.82
2024-01-07T01:55:59.214Z,-4.84
2024-01-07T01:58:27.707Z,-4.80
2024-01-07T02:00:56.256Z,-4.84
2024-01-07T02:03:24.356Z,-4.80
2024-01-07T02:05:53.692Z,-4.80
2024-01-07T02:08:22.090Z,-4.80
2024-01-07T02:10:50.004Z,-4.80
2024-01-07T02:13:17.937Z,-4.80
2024-01-07T02:15:45.906Z,-4.80
2024-01-07T02:18:13.868Z,-4.80
2024-01-07T02:20:41.947Z,-4.80
2024-01-07T02:23:09.805Z,-4.80
2024-01-07T02:25:38.442Z,-4.72
2024-01-07T02:28:07.313Z,-4.72
2024-01-07T02:30:37.794Z,-4.70
2024-01-07T02:33:07.125Z,-4.70
2024-01-07T02:35:35.281Z,-4.70
2024-01-07T02:38:03.269Z,-4.70
2024-01-07T02:40:31.268Z,-4.70
2024-01-07T02:42:59.709Z,-4.64
2024-01-07T02:45:27.818Z,-4.60
2024-01-07T02:47:56.263Z,-4.60
2024-01-07T02:50:24.536Z,-4.60
2024-01-07T02:52:52.378Z,-4.60
2024-01-07T02:55:20.341Z,-4.60
2024-01-07T02:57:48.736Z,-4.54
2024-01-07T03:00:16.961Z,-4.50
2024-01-07T03:02:44.917Z,-4.52
2024-01-07T03:05:13.040Z,-4.60
2024-01-07T03:07:40.993Z,-4.60
2024-01-07T03:10:09.487Z,-4.60
2024-01-07T03:12:37.444Z,-4.68
2024-01-07T03:15:07.342Z,-4.72
2024-01-07T03:17:35.423Z,-4.80
2024-01-07T03:20:04.104Z,-4.80
2024-01-07T03:22:32.426Z,-4.80
2024-01-07T03:25:00.455Z,-4.80
2024-01-07T03:27:28.476Z,-4.88
2024-01-07T03:29:56.390Z,-4.90
2024-01-07T03:32:24.178Z,-4.90
2024-01-07T03:34:52.173Z,-4.90
2024-01-07T03:37:20.198Z,-4.90
2024-01-07T03:39:48.830Z,-4.90
2024-01-07T03:42:16.837Z,-4.90
2024-01-07T03:44:44.933Z,-5.00
2024-01-07T03:47:12.834Z,-4.98
2024-01-07T03:49:41.014Z,-4.94
2024-01-07T03:52:12.151Z,-4.98
2024-01-07T03:54:40.039Z,-4.96
2024-01-07T03:57:08.031Z,-5.00
2024-01-07T03:59:36.163Z,-5.00
2024-01-07T04:02:04.408Z,-5.00
2024-01-07T04:04:32.339Z,-5.10
2024-01-07T04:07:00.378Z,-5.10
2024-01-07T04:09:28.499Z,-5.10
2024-01-07T04:11:56.372Z,-5.10
2024-01-07T04:14:24.183Z,-5.20
2024-01-07T04:16:52.191Z,-5.20
2024-01-07T04:19:20.193Z,-5.20
2024-01-07T04:21:48.304Z,-5.20
2024-01-07T04:24:16.282Z,-5.10
2024-01-07T04:26:44.361Z,-5.10
2024-01-07T04:29:12.362Z,-5.10
2024-01-07T04:31:40.401Z,-5.18
2024-01-07T04:34:08.725Z,-5.20
2024-01-07T04:36:36.914Z,-5.20
2024-01-07T04:39:04.962Z,-5.20
2024-01-07T04:41:32.832Z,-5.24
2024-01-07T04:44:00.769Z,-5.30
2024-01-07T04:46:28.779Z,-5.30
2024-01-07T04:48:57.086Z,-5.30
2024-01-07T04:51:25.254Z,-5.30
2024-01-07T04:53:53.329Z,-5.38
2024-01-07T04:56:21.572Z,-5.40
2024-01-07T04:58:49.511Z,-5.40
2024-01-07T05:01:17.440Z,-5.40
2024-01-07T05:03:45.759Z,-5.40
2024-01-07T05:06:13.749Z,-5.40
2024-01-07T05:08:43.820Z,-5.50
2024-01-07T05:11:12.825Z,-5.58
2024-01-07T05:13:40.869Z,-5.58
2024-01-07T05:16:08.895Z,-5.50
2024-01-07T05:18:36.984Z,-5.50
2024-01-07T05:21:07.020Z,-5.50
2024-01-07T05:23:34.933Z,-5.50
2024-01-07T05:26:02.895Z,-5.50
2024-01-07T05:28:30.775Z,-5.50
2024-01-07T05:30:58.767Z,-5.50
2024-01-07T05:33:27.076Z,-5.50
2024-01-07T05:35:54.998Z,-5.50
2024-01-07T05:38:22.879Z,-5.50
2024-01-07T05:40:50.893Z,-5.50
2024-01-07T05:43:18.808Z,-5.52
2024-01-07T05:45:46.651Z,-5.60
2024-01-07T05:48:14.630Z,-5.60
2024-01-07T05:50:43.051Z,-5.60
2024-01-07T05:53:10.925Z,-5.56
2024-01-07T05:55:38.869Z,-5.60
2024-01-07T05:58:06.785Z,-5.58
2024-01-07T06:00:34.701Z,-5.54
2024-01-07T06:03:03.189Z,-5.50
2024-01-07T06:05:31.354Z,-5.50
2024-01-07T06:07:59.377Z,-5.50
2024-01-07T06:10:28.005Z,-5.40
2024-01-07T06:12:55.931Z,-5.42
2024-01-07T06:15:23.922Z,-5.48
2024-01-07T06:17:51.897Z,-5.50
2024-01-07T06:20:20.189Z,-5.50
2024-01-07T06:22:48.689Z,-5.50
2024-01-07T06:25:16.740Z,-5.54
2024-01-07T06:27:44.657Z,-5.60
2024-01-07T06:30:13.040Z,-5.60
2024-01-07T06:32:41.275Z,-5.60
2024-01-07T06:35:09.394Z,-5.60
2024-01-07T06:37:37.436Z,-5.56
2024-01-07T06:40:05.734Z,-5.50
2024-01-07T06:42:33.800Z,-5.50
2024-01-07T06:45:03.485Z,-5.50
2024-01-07T06:47:31.419Z,-5.50
2024-01-07T06:49:59.440Z,-5.50
2024-01-07T06:52:27.418Z,-5.50
2024-01-07T06:54:55.434Z,-5.50
2024-01-07T06:57:23.439Z,-5.52
2024-01-07T06:59:51.353Z,-5.58
2024-01-07T07:02:19.229Z,-5.50
2024-01-07T07:04:47.744Z,-5.56
2024-01-07T07:07:16.153Z,-5.58
2024-01-07T07:09:44.225Z,-5.58
2024-01-07T07:12:13.848Z,-5.60
2024-01-07T07:14:41.783Z,-5.56
2024-01-07T07:17:09.853Z,-5.60
2024-01-07T07:19:37.773Z,-5.58
2024-01-07T07:22:05.938Z,-5.50
2024-01-07T07:24:34.364Z,-5.50
2024-01-07T07:27:02.408Z,-5.50
2024-01-07T07:29:30.271Z,-5.50
2024-01-07T07:31:58.584Z,-5.56
2024-01-07T07:34:26.805Z,-5.52
2024-01-07T07:36:55.109Z,-5.60
2024-01-07T07:39:23.224Z,-5.60
2024-01-07T07:41:51.113Z,-5.60
2024-01-07T07:44:19.099Z,-5.60
2024-01-07T07:46:46.983Z,-5.58
2024-01-07T07:49:15.308Z,-5.50
2024-01-07T07:51:46.217Z,-5.54
2024-01-07T07:54:14.243Z,-5.56
2024-01-07T07:56:42.184Z,-5.56
2024-01-07T07:59:10.035Z,-5.50
2024-01-07T08:01:38.983Z,-5.50
2024-01-07T08:04:07.138Z,-5.44
2024-01-07T08:06:35.136Z,-5.40
2024-01-07T08:09:03.250Z,-5.42
2024-01-07T08:11:31.201Z,-5.40
2024-01-07T08:13:59.231Z,-5.40
2024-01-07T08:16:27.108Z,-5.40
2024-01-07T08:18:57.853Z,-5.36
2024-01-07T08:21:26.184Z,-5.30
2024-01-07T08:23:54.220Z,-5.30
2024-01-07T08:26:25.680Z,-5.28
2024-01-07T08:28:53.648Z,-5.22
2024-01-07T08:31:21.635Z,-5.20
2024-01-07T08:33:49.801Z,-5.20
2024-01-07T08:36:18.160Z,-5.20
2024-01-07T08:38:46.851Z,-5.20
2024-01-07T08:41:18.010Z,-5.20
2024-01-07T08:43:48.575Z,-5.16
2024-01-07T08:46:17.000Z,-5.10
2024-01-07T08:48:45.088Z,-5.10
2024-01-07T08:51:13.076Z,-5.00
2024-01-07T08:53:41.969Z,-4.96
2024-01-07T08:56:11.216Z,-4.90
2024-01-07T08:58:41.579Z,-4.90
2024-01-07T09:01:09.807Z,-4.90
2024-01-07T09:03:38.174Z,-4.90
2024-01-07T09:06:06.509Z,-4.90
2024-01-07T09:08:35.669Z,-4.86
2024-01-07T09:11:08.147Z,-4.82
2024-01-07T09:13:36.294Z,-4.80
2024-01-07T09:16:05.729Z,-4.70
2024-01-07T09:18:37.284Z,-4.60
2024-01-07T09:21:07.596Z,-4.50
2024-01-07T09:23:37.382Z,-4.40
2024-01-07T09:26:08.142Z,-4.40
2024-01-07T09:28:39.562Z,-4.40
2024-01-07T09:31:08.473Z,-4.40
2024-01-07T09:33:36.558Z,-4.40
2024-01-07T09:36:15.849Z,-4.50
2024-01-07T09:38:55.237Z,-4.52
2024-01-07T09:41:23.332Z,-4.60
2024-01-07T09:43:53.433Z,-4.60
2024-01-07T09:46:23.649Z,-4.70
2024-01-07T09:48:51.996Z,-4.70
2024-01-07T09:51:23.037Z,-4.80
2024-01-07T09:53:54.990Z,-4.80
2024-01-07T09:56:28.859Z,-4.80
2024-01-07T09:58:57.977Z,-4.80
2024-01-07T10:01:27.449Z,-4.80
2024-01-07T10:03:55.502Z,-4.80
2024-01-07T10:06:23.615Z,-4.80
2024-01-07T10:08:52.285Z,-4.80
2024-01-07T10:11:20.160Z,-4.88
2024-01-07T10:13:52.674Z,-4.90
2024-01-07T10:16:20.992Z,-4.90
2024-01-07T10:18:49.177Z,-5.00
2024-01-07T10:21:17.357Z,-5.00
2024-01-07T10:23:45.385Z,-5.04
2024-01-07T10:26:20.333Z,-5.08
2024-01-07T10:28:55.765Z,-5.00
2024-01-07T10:31:26.926Z,-5.00
2024-01-07T10:33:56.276Z,-5.00
2024-01-07T10:36:25.848Z,-5.00
2024-01-07T10:38:54.332Z,-5.00
2024-01-07T10:41:23.313Z,-5.00
2024-01-07T10:43:51.885Z,-4.98
2024-01-07T10:46:20.081Z,-4.90
2024-01-07T10:48:54.682Z,-4.90
2024-01-07T10:51:23.289Z,-4.90
2024-01-07T10:53:56.808Z,-4.90
2024-01-07T10:56:26.568Z,-4.86
2024-01-07T10:58:56.016Z,-4.88
2024-01-07T11:01:24.977Z,-4.88
2024-01-07T11:04:18.899Z,-4.90
2024-01-07T11:07:15.583Z,-4.90
2024-01-07T11:10:02.615Z,-4.90
2024-01-07T11:12:31.079Z,-4.90
2024-01-07T11:15:00.241Z,-4.84
2024-01-07T11:17:41.640Z,-4.80
2024-01-07T11:20:24.070Z,-4.80
2024-01-07T11:22:52.391Z,-4.80
2024-01-07T11:25:33.321Z,-4.70
2024-01-07T11:28:03.262Z,-4.70
2024-01-07T11:30:39.156Z,-4.60
2024-01-07T11:33:07.425Z,-4.62
2024-01-07T11:35:54.193Z,-4.60
2024-01-07T11:38:22.459Z,-4.60
2024-01-07T11:40:51.368Z,-4.60
2024-01-07T11:43:20.266Z,-4.60
2024-01-07T11:45:51.740Z,-4.50
2024-01-07T11:48:20.557Z,-4.50
2024-01-07T11:50:49.676Z,-4.50
2024-01-07T11:53:19.307Z,-4.50
2024-01-07T11:55:47.903Z,-4.42
2024-01-07T11:58:15.923Z,-4.40
2024-01-07T12:00:44.029Z,-4.40
2024-01-07T12:03:13.517Z,-4.40
2024-01-07T12:05:44.534Z,-4.40
2024-01-07T12:08:13.197Z,-4.48
2024-01-07T12:10:41.213Z,-4.42
2024-01-07T12:13:10.496Z,-4.50
2024-01-07T12:15:39.326Z,-4.50
2024-01-07T12:18:07.525Z,-4.60
2024-01-07T12:20:35.584Z,-4.70
2024-01-07T12:23:11.744Z,-4.70
2024-01-07T12:25:39.707Z,-4.70
2024-01-07T12:28:08.197Z,-4.70
2024-01-07T12:30:36.405Z,-4.72
2024-01-07T12:33:06.757Z,-4.80
2024-01-07T12:35:35.776Z,-4.82
2024-01-07T12:38:05.923Z,-4.90
2024-01-07T12:40:33.858Z,-4.90
2024-01-07T12:43:01.829Z,-4.90
2024-01-07T12:45:29.731Z,-4.90
2024-01-07T12:48:00.342Z,-4.90
2024-01-07T12:50:31.191Z,-4.90
2024-01-07T12:52:59.102Z,-4.90
2024-01-07T12:55:27.924Z,-5.00
2024-01-07T12:57:56.461Z,-5.00
2024-01-07T13:00:24.468Z,-5.00
2024-01-07T13:02:52.523Z,-5.00
2024-01-07T13:05:20.806Z,-5.00
2024-01-07T13:07:49.027Z,-5.04
2024-01-07T13:10:17.364Z,-5.10
2024-01-07T13:12:49.114Z,-5.00
2024-01-07T13:15:19.002Z,-5.10
2024-01-07T13:17:47.515Z,-5.10
2024-01-07T13:20:18.445Z,-5.14
2024-01-07T13:22:47.732Z,-5.20
2024-01-07T13:25:16.105Z,-5.24
2024-01-07T13:27:44.166Z,-5.30
2024-01-07T13:30:15.030Z,-5.30
2024-01-07T13:32:42.964Z,-5.30
2024-01-07T13:35:12.322Z,-5.30
2024-01-07T13:37:43.226Z,-5.30
2024-01-07T13:40:12.743Z,-5.30
2024-01-07T13:42:40.953Z,-5.30
2024-01-07T13:45:09.274Z,-5.30
2024-01-07T13:47:37.822Z,-5.30
2024-01-07T13:50:06.368Z,-5.30
2024-01-07T13:52:34.839Z,-5.40
2024-01-07T13:55:02.909Z,-5.40
2024-01-07T13:57:31.941Z,-5.50
2024-01-07T14:00:00.222Z,-5.54
2024-01-07T14:02:28.242Z,-5.60
2024-01-07T14:04:56.165Z,-5.70
2024-01-07T14:07:25.826Z,-5.70
2024-01-07T14:09:53.769Z,-5.70
2024-01-07T14:12:21.808Z,-5.80
2024-01-07T14:14:49.657Z,-5.80
2024-01-07T14:17:17.640Z,-5.80
2024-01-07T14:19:47.941Z,-5.80
2024-01-07T14:22:16.935Z,-5.90
2024-01-07T14:24:45.115Z,-5.90
2024-01-07T14:27:13.305Z,-5.94
2024-01-07T14:29:41.246Z,-6.00
2024-01-07T14:32:09.746Z,-5.98
2024-01-07T14:34:45.412Z,-5.96
2024-01-07T14:37:14.414Z,-5.90
2024-01-07T14:39:42.710Z,-5.90
2024-01-07T14:42:10.676Z,-5.90
2024-01-07T14:44:47.817Z,-5.90
2024-01-07T14:47:19.449Z,-5.92
2024-01-07T14:49:47.646Z,-5.96
2024-01-07T14:52:15.822Z,-6.00
2024-01-07T14:54:46.310Z,-6.00
2024-01-07T14:57:14.255Z,-6.00
2024-01-07T14:59:42.223Z,-6.04
2024-01-07T15:02:12.382Z,-6.10
2024-01-07T15:04:42.789Z,-6.10
2024-01-07T15:07:10.849Z,-6.20
2024-01-07T15:09:42.851Z,-6.20
2024-01-07T15:12:13.715Z,-6.22
2024-01-07T15:14:43.130Z,-6.30
2024-01-07T15:17:13.917Z,-6.30
2024-01-07T15:19:42.588Z,-6.30
2024-01-07T15:22:11.108Z,-6.38
2024-01-07T15:24:39.016Z,-6.40
2024-01-07T15:27:10.342Z,-6.40
2024-01-07T15:29:38.323Z,-6.40
2024-01-07T15:32:06.896Z,-6.44
2024-01-07T15:34:35.534Z,-6.50
2024-01-07T15:37:03.730Z,-6.50
2024-01-07T15:39:31.600Z,-6.50
2024-01-07T15:42:01.206Z,-6.56
2024-01-07T15:44:29.438Z,-6.60
2024-01-07T15:46:57.408Z,-6.60
2024-01-07T15:49:25.370Z,-6.60
2024-01-07T15:51:53.469Z,-6.60
2024-01-07T15:54:21.496Z,-6.60
2024-01-07T15:56:49.522Z,-6.60
2024-01-07T15:59:18.857Z,-6.60
2024-01-07T16:01:48.389Z,-6.60
2024-01-07T16:04:18.049Z,-6.70
2024-01-07T16:06:48.768Z,-6.70
2024-01-07T16:09:16.708Z,-6.70
2024-01-07T16:11:46.779Z,-6.70
2024-01-07T16:14:14.937Z,-6.70
2024-01-07T16:16:43.015Z,-6.70
2024-01-07T16:19:12.248Z,-6.70
2024-01-07T16:21:41.393Z,-6.70
2024-01-07T16:24:09.724Z,-6.72
2024-01-07T16:26:38.126Z,-6.80
2024-01-07T16:29:06.104Z,-6.80
2024-01-07T16:31:36.368Z,-6.80
2024-01-07T16:34:05.613Z,-6.80
2024-01-07T16:36:33.841Z,-6.82
2024-01-07T16:39:03.830Z,-6.90
2024-01-07T16:41:31.964Z,-7.00
2024-01-07T16:44:00.049Z,-7.00
2024-01-07T16:46:28.034Z,-6.98
2024-01-07T16:50:18.284Z,-6.94
2024-01-07T16:51:46.742Z,-6.98
2024-01-07T16:54:14.888Z,-7.00
2024-01-07T16:56:43.536Z,-7.00
2024-01-07T16:59:11.824Z,-7.02
2024-01-07T17:01:40.168Z,-7.00
2024-01-07T17:04:08.370Z,-7.00
2024-01-07T17:06:36.568Z,-7.00
2024-01-07T17:09:04.806Z,-7.10
2024-01-07T17:11:35.566Z,-7.10
2024-01-07T17:14:03.768Z,-7.10
2024-01-07T17:16:32.242Z,-7.20
2024-01-07T17:19:00.992Z,-7.20
2024-01-07T17:21:29.464Z,-7.20
2024-01-07T17:23:57.833Z,-7.30
2024-01-07T17:26:26.009Z,-7.30
2024-01-07T17:28:54.036Z,-7.30
2024-01-07T17:31:21.984Z,-7.34
2024-01-07T17:33:51.047Z,-7.40
2024-01-07T17:36:20.447Z,-7.40
2024-01-07T17:38:48.832Z,-7.50
2024-01-07T17:41:16.828Z,-7.50
2024-01-07T17:43:45.254Z,-7.60
2024-01-07T17:46:15.708Z,-7.68
2024-01-07T17:48:44.097Z,-7.70
2024-01-07T17:51:13.015Z,-7.76
2024-01-07T17:53:43.320Z,-7.80
2024-01-07T17:56:20.145Z,-7.90
2024-01-07T17:58:50.795Z,-7.90
2024-01-07T18:01:20.145Z,-7.90
2024-01-07T18:03:49.249Z,-8.00
2024-01-07T18:06:19.238Z,-8.02
2024-01-07T18:08:52.566Z,-8.10
2024-01-07T18:11:28.518Z,-8.10
2024-01-07T18:13:57.403Z,-8.10
2024-01-07T18:16:25.298Z,-8.10
2024-01-07T18:18:53.542Z,-8.12
2024-01-07T18:21:21.611Z,-8.20
2024-01-07T18:23:49.566Z,-8.20
2024-01-07T18:26:17.578Z,-8.30
2024-01-07T18:28:46.540Z,-8.30
2024-01-07T18:31:15.987Z,-8.30
2024-01-07T18:33:44.001Z,-8.30
2024-01-07T18:36:13.505Z,-8.30
2024-01-07T18:38:42.343Z,-8.30
2024-01-07T18:41:11.269Z,-8.34
2024-01-07T18:43:39.542Z,-8.40
2024-01-07T18:46:11.273Z,-8.40
2024-01-07T18:48:42.869Z,-8.40
2024-01-07T18:51:11.782Z,-8.40
2024-01-07T18:53:40.223Z,-8.40
2024-01-07T18:56:09.171Z,-8.40
2024-01-07T18:58:40.074Z,-8.40
2024-01-07T19:01:08.696Z,-8.40
2024-01-07T19:03:38.944Z,-8.48
2024-01-07T19:06:07.554Z,-8.50
2024-01-07T19:08:36.738Z,-8.50
2024-01-07T19:11:04.826Z,-8.50
2024-01-07T19:13:34.274Z,-8.50
2024-01-07T19:16:02.667Z,-8.50
2024-01-07T19:18:34.040Z,-8.50
2024-01-07T19:21:02.150Z,-8.50
2024-01-07T19:23:30.158Z,-8.58
2024-01-07T19:25:58.142Z,-8.60
2024-01-07T19:28:25.926Z,-8.64
2024-01-07T19:30:58.468Z,-8.68
2024-01-07T19:33:29.285Z,-8.70
2024-01-07T19:35:59.552Z,-8.70
2024-01-07T19:38:30.893Z,-8.70
2024-01-07T19:40:59.075Z,-8.70
2024-01-07T19:43:27.626Z,-8.70
2024-01-07T19:45:55.873Z,-8.68
2024-01-07T19:48:23.885Z,-8.68
2024-01-07T19:50:52.172Z,-8.70
2024-01-07T19:53:30.055Z,-8.70
2024-01-07T19:56:03.532Z,-8.80
2024-01-07T19:58:32.044Z,-8.80
2024-01-07T20:00:59.972Z,-8.80
2024-01-07T20:03:28.434Z,-8.84
2024-01-07T20:05:56.544Z,-8.84
2024-01-07T20:08:25.081Z,-8.82
2024-01-07T20:10:54.204Z,-8.86
2024-01-07T20:13:23.806Z,-8.90
2024-01-07T20:15:51.950Z,-8.90
2024-01-07T20:18:20.122Z,-8.90
2024-01-07T20:20:48.261Z,-8.90
2024-01-07T20:23:16.620Z,-8.90
2024-01-07T20:25:47.790Z,-8.90
2024-01-07T20:28:15.708Z,-8.90
2024-01-07T20:30:43.834Z,-8.90
2024-01-07T20:33:13.560Z,-8.96
2024-01-07T20:35:41.602Z,-8.98
2024-01-07T20:38:10.465Z,-9.00
2024-01-07T20:40:38.989Z,-9.00
2024-01-07T20:43:11.458Z,-8.98
2024-01-07T20:45:39.769Z,-8.98
2024-01-07T20:48:08.267Z,-9.00
2024-01-07T20:50:38.873Z,-9.00
2024-01-07T20:53:07.382Z,-9.06
2024-01-07T20:55:35.988Z,-9.06
2024-01-07T20:58:04.202Z,-9.02
2024-01-07T21:00:32.172Z,-9.00
2024-01-07T21:03:00.089Z,-9.00
2024-01-07T21:05:29.235Z,-9.00
2024-01-07T21:07:57.310Z,-8.92
2024-01-07T21:10:25.485Z,-8.90
2024-01-07T21:12:54.354Z,-8.90
2024-01-07T21:15:23.524Z,-8.90
2024-01-07T21:17:51.982Z,-8.90
2024-01-07T21:20:19.989Z,-8.90
2024-01-07T21:22:47.935Z,-9.00
2024-01-07T21:25:18.279Z,-8.98
2024-01-07T21:27:46.258Z,-9.00
2024-01-07T21:30:14.218Z,-9.00
2024-01-07T21:32:43.615Z,-9.00
2024-01-07T21:35:11.791Z,-9.00
2024-01-07T21:37:39.940Z,-9.00
2024-01-07T21:40:09.005Z,-9.00
2024-01-07T21:42:38.555Z,-9.02
2024-01-07T21:45:06.839Z,-9.08
2024-01-07T21:47:35.359Z,-9.10
2024-01-07T21:50:03.690Z,-9.10
2024-01-07T21:52:32.326Z,-9.10
2024-01-07T21:55:00.767Z,-9.12
2024-01-07T21:57:29.324Z,-9.16
2024-01-07T21:59:57.758Z,-9.18
2024-01-07T22:02:26.381Z,-9.10
2024-01-07T22:04:55.070Z,-9.10
2024-01-07T22:07:23.421Z,-9.10
2024-01-07T22:09:52.958Z,-9.10
2024-01-07T22:12:22.760Z,-9.10
2024-01-07T22:14:50.901Z,-9.10
2024-01-07T22:17:21.406Z,-9.10
2024-01-07T22:19:51.043Z,-9.14
2024-01-07T22:22:19.099Z,-9.18
2024-01-07T22:24:47.012Z,-9.20
2024-01-07T22:27:14.958Z,-9.20
2024-01-07T22:29:43.668Z,-9.20
2024-01-07T22:32:12.244Z,-9.20
2024-01-07T22:34:41.972Z,-9.20
2024-01-07T22:37:10.412Z,-9.20
2024-01-07T22:39:40.813Z,-9.20
2024-01-07T22:42:09.246Z,-9.20
2024-01-07T22:44:37.709Z,-9.18
2024-01-07T22:47:07.450Z,-9.14
2024-01-07T22:49:35.756Z,-9.10
2024-01-07T22:52:06.115Z,-9.10
2024-01-07T22:54:38.090Z,-9.10
2024-01-07T22:57:07.140Z,-9.10
2024-01-07T22:59:35.388Z,-9.10
2024-01-07T23:02:06.607Z,-9.10
2024-01-07T23:04:34.718Z,-9.10
2024-01-07T23:07:02.663Z,-9.10
2024-01-07T23:09:30.556Z,-9.10
2024-01-07T23:11:58.743Z,-9.10
2024-01-07T23:14:28.619Z,-9.10
2024-01-07T23:16:59.654Z,-9.10
2024-01-07T23:19:28.178Z,-9.10
2024-01-07T23:21:57.077Z,-9.10
2024-01-07T23:24:25.256Z,-9.00
2024-01-07T23:26:55.362Z,-9.00
2024-01-07T23:29:23.374Z,-9.00
2024-01-07T23:31:53.231Z,-8.98
2024-01-07T23:34:22.136Z,-8.92
2024-01-07T23:36:50.490Z,-8.90
2024-01-07T23:39:19.093Z,-8.90
2024-01-07T23:41:47.211Z,-8.90
2024-01-07T23:44:15.266Z,-8.90
2024-01-07T23:46:43.309Z,-8.90
2024-01-07T23:49:14.147Z,-8.80
2024-01-07T23:51:42.968Z,-8.80
2024-01-07T23:54:11.003Z,-8.80
2024-01-07T23:56:43.787Z,-8.74
2024-01-07T23:59:11.945Z,-8.72
